Latest Weather Observations for Shay Gap

IDW60801

Issued at 8:35 pm WST Wednesday 20 August 2014 (issued every 30 minutes, with the page automatically refreshed every 10 minutes)

About weather observations | Map of weather stations | Latest weather observations for WA | Other Formats
Station Details ID: 504045 Name: SHAY GAP Lat: -20.43 Lon: 120.13 Height: 173.83 m
Data from the previous 72 hours. | See also: Recent months for locations in Western Australia
Date/Time
WST
Temp
°C
App
Temp
°C
Dew
Point
Rel
Hum
%
Delta-T
°C
Wind Press
QNH
hPa
Press
MSL
hPa
Rain
since 9 am
mm
Dir
 
Spd
km/h
Gust
km/h
Spd
kts
Gust
kts
20/08:30pm 18.5 14.4 2.4 34 7.4 NW 13 17 7 9 1016.4 1015.8 -
20/08:00pm 19.0 15.2 2.0 32 7.8 NNW 11 13 6 7 1016.2 1015.6 -
20/07:30pm 19.3 15.0 0.8 29 8.3 NNW 13 13 7 7 1016.0 1015.4 -
20/07:00pm 21.0 16.2 0.2 25 9.4 NNW 15 15 8 8 1015.7 1015.1 -
20/06:30pm 22.0 17.4 -0.7 22 10.1 NNW 13 17 7 9 1015.5 1014.9 -
20/06:00pm 24.2 19.0 -2.4 17 11.7 NNW 15 19 8 10 1015.1 1014.5 -
20/05:30pm 26.2 19.6 -3.4 14 13.0 N 22 32 12 17 1014.9 1014.3 -
20/05:00pm 27.8 21.2 -3.1 13 13.8 N 22 28 12 15 1014.6 1014.0 -
20/04:30pm 28.4 21.6 -4.9 11 14.5 N 22 30 12 16 1014.5 1013.9 -
20/04:00pm 29.7 23.6 -3.9 11 15.1 N 19 24 10 13 1014.3 1013.7 -
20/03:30pm 29.5 22.4 -4.0 11 15.0 N 24 35 13 19 1014.3 1013.7 -
20/03:00pm 29.7 25.2 -6.5 9 15.5 W 9 17 5 9 1014.1 1013.5 -
20/02:30pm 30.1 26.0 -6.2 9 15.7 SSE 7 13 4 7 1014.4 1013.8 -
20/02:00pm 29.6 24.0 -6.6 9 15.5 NE 15 28 8 15 1014.9 1014.3 -
20/01:30pm 29.1 24.3 -5.6 10 15.0 ESE 11 20 6 11 1015.2 1014.6 -
20/01:00pm 28.9 24.9 -5.7 10 14.9 NNW 7 13 4 7 1015.9 1015.3 -
20/12:30pm 28.8 23.6 -5.8 10 14.9 NNW 13 19 7 10 1016.4 1015.8 -
20/12:00pm 27.9 23.6 -5.2 11 14.3 ESE 9 19 5 10 1017.0 1016.3 -
20/11:30am 27.6 23.7 -4.3 12 14.0 ESE 7 13 4 7 1017.5 1016.9 0.0
20/11:00am 27.6 23.6 -2.3 14 13.5 ESE 9 20 5 11 1017.7 1017.1 0.0
20/10:30am 26.7 22.1 -1.2 16 12.8 SE 13 22 7 12 1017.9 1017.3 0.0
20/10:00am 25.7 21.6 -0.4 18 12.1 SSE 11 15 6 8 1018.2 1017.6 0.0
20/09:30am 24.2 19.3 -0.2 20 11.2 SSE 15 19 8 10 1018.3 1017.7 0.0
20/09:00am 22.5 17.7 0.4 23 10.1 SSE 15 17 8 9 1018.2 1017.6 0.0
20/08:30am 21.3 16.5 -0.1 24 9.6 SSE 15 17 8 9 1018.1 - 0.0
20/08:00am 19.8 15.4 0.3 27 8.7 SSE 13 15 7 8 1017.9 1017.3 0.0
20/07:30am 17.6 13.8 1.6 34 7.2 SSE 11 11 6 6 1017.7 - 0.0
20/07:00am 14.3 9.9 0.5 39 5.9 SSE 13 15 7 8 1017.5 1016.9 0.0
20/06:30am 13.4 8.9 -0.6 38 5.8 SSE 13 15 7 8 1017.2 - 0.0
20/06:00am 14.8 10.7 -0.5 35 6.4 S 11 13 6 7 1017.0 1016.3 0.0
20/05:30am 14.8 10.2 -0.9 34 6.6 S 13 15 7 8 1016.6 - 0.0
20/05:00am 16.6 12.3 -1.5 29 7.6 S 11 13 6 7 1016.3 1015.7 0.0
20/04:30am 16.2 11.6 -1.4 30 7.4 SSW 13 17 7 9 1016.2 - 0.0
20/04:00am 15.5 10.5 -1.1 32 6.9 SSW 15 19 8 10 1016.1 1015.5 0.0
20/03:30am 15.3 10.8 -0.4 34 6.7 SW 13 15 7 8 1016.1 - 0.0
20/03:00am 15.2 10.7 -0.1 35 6.5 SW 13 15 7 8 1016.3 1015.7 0.0
20/02:30am 14.1 10.5 0.7 40 5.8 E 9 13 5 7 1016.4 - 0.0
20/02:00am 15.2 11.3 1.0 38 6.2 E 11 13 6 7 1016.5 1015.9 0.0
20/01:30am 15.8 13.2 0.8 36 6.6 WSW 4 7 2 4 1016.4 - 0.0
20/01:00am 15.6 11.2 0.6 36 6.5 WSW 13 15 7 8 1016.8 1016.1 0.0
20/12:30am 16.1 11.4 1.0 36 6.6 WSW 15 17 8 9 1017.0 - 0.0
20/12:00am 16.1 13.3 1.8 38 6.4 W 6 9 3 5 1017.4 1016.7 0.0
 
Date/Time
WST
Temp
°C
App
Temp
°C
Dew
Point
Rel
Hum
%
Delta-T
°C
Wind Press
QNH
hPa
Press
MSL
hPa
Rain
since 9 am
mm
Dir
 
Spd
km/h
Gust
km/h
Spd
kts
Gust
kts
19/11:30pm 17.0 13.4 3.0 39 6.5 WSW 11 15 6 8 1017.7 - 0.0
19/11:00pm 17.4 12.8 1.8 35 7.0 WSW 15 19 8 10 1017.9 1017.3 0.0
19/10:30pm 16.7 11.6 0.8 34 7.0 WSW 17 20 9 11 1017.9 - 0.0
19/10:00pm 17.3 13.5 1.7 35 7.0 WSW 11 13 6 7 1017.9 1017.3 0.0
19/09:30pm 17.6 13.5 2.4 36 7.0 W 13 15 7 8 1017.9 - 0.0
19/09:00pm 18.4 14.3 2.3 34 7.4 W 13 17 7 9 1017.9 1017.3 0.0
19/08:30pm 18.7 14.6 2.1 33 7.6 WNW 13 15 7 8 1017.7 - 0.0
19/08:00pm 19.0 15.4 0.6 29 8.2 NW 9 11 5 6 1017.5 1016.9 0.0
19/07:30pm 19.8 16.2 0.3 27 8.7 NNW 9 11 5 6 1017.2 - 0.0
19/07:00pm 20.9 16.4 -0.4 24 9.5 NW 13 19 7 10 1016.8 1016.1 0.0
19/06:30pm 22.1 17.2 -0.6 22 10.2 NW 15 19 8 10 1016.4 - 0.0
19/06:00pm 23.9 18.9 -1.1 19 11.3 NNW 15 19 8 10 1016.1 1015.5 0.0
19/05:30pm 26.0 20.1 -0.9 17 12.4 NW 20 26 11 14 1015.9 - 0.0
19/05:00pm 28.3 24.0 -4.9 11 14.5 WSW 9 11 5 6 1015.7 1015.1 0.0
19/04:30pm 28.1 23.8 -5.1 11 14.4 ESE 9 13 5 7 1015.5 - 0.0
19/04:00pm 28.5 24.2 -4.8 11 14.6 SW 9 20 5 11 1015.5 1014.9 0.0
19/03:30pm 28.6 24.6 -6.0 10 14.8 ENE 7 17 4 9 1015.6 - 0.0
19/03:00pm 28.4 23.6 -6.1 10 14.7 S 11 17 6 9 1015.7 1015.1 0.0
19/02:30pm 29.0 24.0 -4.4 11 14.8 SSE 13 20 7 11 1015.9 - 0.0
19/02:00pm 28.1 24.2 -5.1 11 14.4 N 7 11 4 6 1016.3 1015.7 0.0
19/01:30pm 28.3 24.0 -4.9 11 14.5 S 9 13 5 7 1016.8 - 0.0
19/01:00pm 27.2 21.7 -5.8 11 14.0 ESE 15 20 8 11 1017.2 1016.5 0.0
19/12:30pm 26.8 22.1 -4.9 12 13.6 WSW 11 19 6 10 1017.7 - 0.0
19/12:00pm 27.3 22.3 -4.6 12 13.8 S 13 24 7 13 1018.1 1017.5 0.0
19/11:30am 26.8 22.2 -3.9 13 13.5 S 11 19 6 10 1018.6 - 0.0
19/11:00am 25.8 21.0 -2.8 15 12.6 S 13 20 7 11 1019.0 1018.4 0.0
19/10:30am 25.0 20.8 -0.9 18 11.8 SE 11 17 6 9 1019.3 - 0.0
19/10:00am 24.8 20.8 0.3 20 11.4 SE 11 17 6 9 1019.8 1019.2 0.0
19/09:30am 23.6 18.9 0.7 22 10.7 E 15 22 8 12 1020.0 - 0.0
19/09:00am 22.0 17.2 -0.1 23 10.0 SE 15 20 8 11 1020.1 1019.5 0.0
19/08:30am 20.9 16.5 0.2 25 9.3 ESE 13 19 7 10 1020.0 - 0.0
19/08:00am 18.8 14.7 -0.1 28 8.3 ESE 11 15 6 8 1019.9 1019.3 0.0
19/07:30am 16.1 11.8 0.7 35 6.7 SE 13 15 7 8 1019.8 - 0.0
19/07:00am 13.9 8.9 1.5 43 5.4 SSE 17 19 9 10 1019.4 1018.8 0.0
19/06:30am 11.9 7.5 0.4 45 4.8 SSE 13 15 7 8 1019.0 - 0.0
19/06:00am 13.9 9.7 -0.9 36 6.1 S 11 13 6 7 1018.7 1018.1 0.0
19/05:30am 15.3 11.4 -1.3 32 6.9 SSW 9 9 5 5 1018.6 - 0.0
19/05:00am 15.0 10.8 -1.1 33 6.7 S 11 11 6 6 1018.2 1017.6 0.0
19/04:30am 15.6 11.4 -0.6 33 6.9 S 11 13 6 7 1018.0 - 0.0
19/04:00am 14.2 10.2 0.5 39 5.8 S 11 13 6 7 1018.1 1017.5 0.0
19/03:30am 14.2 9.7 -0.3 37 6.1 S 13 17 7 9 1018.1 - 0.0
19/03:00am 16.2 12.1 -0.5 32 7.1 SSW 11 13 6 7 1018.4 1017.8 0.0
19/02:30am 15.5 11.5 0.5 36 6.5 S 11 13 6 7 1018.6 - 0.0
19/02:00am 16.2 12.2 0.7 35 6.8 SSW 11 13 6 7 1018.8 1018.2 0.0
19/01:30am 15.1 11.8 2.6 43 5.6 SSW 9 15 5 8 1019.0 - 0.0
19/01:00am 15.1 11.8 4.5 49 5.0 S 11 15 6 8 1019.2 1018.6 0.0
19/12:30am 14.5 11.6 4.5 51 4.7 S 9 11 5 6 1019.5 - 0.0
19/12:00am 15.8 11.8 4.8 48 5.2 SSW 15 17 8 9 1019.6 1019.0 0.0
 
Date/Time
WST
Temp
°C
App
Temp
°C
Dew
Point
Rel
Hum
%
Delta-T
°C
Wind Press
QNH
hPa
Press
MSL
hPa
Rain
since 9 am
mm
Dir
 
Spd
km/h
Gust
km/h
Spd
kts
Gust
kts
18/11:30pm 16.1 11.5 1.8 38 6.4 WSW 15 17 8 9 1019.6 - 0.0
18/11:00pm 17.7 12.1 -0.1 30 7.7 WSW 19 20 10 11 1019.7 1019.1 0.0
18/10:30pm 16.2 11.7 1.9 38 6.4 WSW 15 17 8 9 1019.8 - 0.0
18/10:00pm 16.0 12.0 3.1 42 5.9 W 13 15 7 8 1019.6 1019.0 0.0
18/09:30pm 16.5 13.2 2.5 39 6.4 W 9 11 5 6 1019.6 - 0.0
18/09:00pm 17.8 14.8 1.7 34 7.3 W 7 11 4 6 1019.4 1018.8 0.0
18/08:30pm 18.3 15.3 2.2 34 7.4 NW 7 9 4 5 1019.2 - 0.0
18/08:00pm 18.4 14.9 1.0 31 7.8 WNW 9 11 5 6 1018.8 1018.2 0.0
18/07:30pm 19.0 15.8 0.6 29 8.2 WNW 7 11 4 6 1018.5 - 0.0
18/07:00pm 19.6 15.2 0.1 27 8.7 NW 13 17 7 9 1018.0 1017.4 0.0
18/06:30pm 22.2 17.7 -0.5 22 10.2 NNW 13 20 7 11 1017.7 - 0.0
18/06:00pm 23.5 19.4 -0.1 21 10.8 N 11 19 6 10 1017.4 1016.7 0.0
18/05:30pm 24.8 20.4 -2.7 16 12.1 S 11 15 6 8 1017.0 - 0.0
18/05:00pm 26.3 21.7 -4.3 13 13.2 S 11 17 6 9 1016.9 1016.2 0.0
18/04:30pm 27.0 22.7 -4.8 12 13.7 SSW 9 13 5 7 1016.8 - 0.0
18/04:00pm 26.7 20.5 -5.0 12 13.6 SE 19 22 10 12 1016.5 1015.9 0.0
18/03:30pm 27.5 23.6 -4.4 12 13.9 WSW 7 13 4 7 1016.6 - 0.0
18/03:00pm 26.8 21.0 -4.9 12 13.6 SSE 17 24 9 13 1016.8 1016.1 0.0
18/02:30pm 26.9 22.7 -3.8 13 13.5 S 9 13 5 7 1016.9 - 0.0
18/02:00pm 27.0 23.3 -4.8 12 13.7 W 6 11 3 6 1017.1 1016.4 0.0
18/01:30pm 26.2 21.9 -4.4 13 13.2 SE 9 20 5 11 1017.6 - 0.0
18/01:00pm 26.5 22.1 -2.2 15 12.9 SE 11 24 6 13 1018.0 1017.4 0.0
18/12:30pm 26.3 21.9 -2.4 15 12.9 ESE 11 20 6 11 1018.7 - 0.0
18/12:00pm 25.3 20.4 -3.2 15 12.5 SSW 13 20 7 11 1019.3 1018.7 0.0
18/11:30am 25.3 19.4 -2.3 16 12.3 SSE 19 24 10 13 1019.9 - 0.0
18/11:00am 24.3 18.3 -1.5 18 11.5 E 20 30 11 16 1020.5 1019.9 0.0
18/10:30am 23.4 17.4 -1.5 19 11.1 ESE 20 28 11 15 1020.9 - 0.0
18/10:00am 22.6 16.8 -0.2 22 10.3 ESE 20 28 11 15 1021.3 1020.7 0.0
18/09:30am 21.3 14.2 -1.3 22 9.9 SE 26 32 14 17 1021.3 - 0.0
18/09:00am 20.0 12.9 -1.2 24 9.2 SE 26 32 14 17 1021.3 1020.7 0.0
18/08:30am 18.9 11.8 -1.0 26 8.6 SE 26 33 14 18 1021.3 - 0.0
18/08:00am 17.2 10.4 -1.9 27 8.0 SE 24 33 13 18 1021.2 1020.6 0.0
18/07:30am 16.2 10.7 -1.8 29 7.5 SSE 17 24 9 13 1021.0 - 0.0
18/07:00am 12.9 7.8 -1.8 36 5.9 S 15 19 8 10 1020.6 1020.0 0.0
18/06:30am 11.3 5.8 -1.8 40 5.2 SSE 17 20 9 11 1020.3 - 0.0
18/06:00am 11.3 6.3 -1.5 41 5.1 SSE 15 17 8 9 1019.8 1019.2 0.0
18/05:30am 10.7 6.1 -1.0 44 4.7 SSE 13 17 7 9 1019.6 - 0.0
18/05:00am 10.2 5.6 -0.9 46 4.4 SSE 13 15 7 8 1019.3 1018.7 0.0
18/04:30am 10.7 5.3 -1.4 43 4.8 SSE 17 17 9 9 1019.1 - 0.0
18/04:00am 11.7 6.6 -2.1 38 5.4 SSE 15 17 8 9 1019.1 1018.5 0.0
18/03:30am 12.3 6.8 -2.3 36 5.8 SSE 17 19 9 10 1019.1 - 0.0
18/03:00am 12.8 7.7 -1.9 36 5.9 SSE 15 17 8 9 1019.3 1018.7 0.0
18/02:30am 12.7 8.0 -2.0 36 5.9 SSE 13 15 7 8 1019.4 - 0.0
18/02:00am 14.1 8.5 -2.8 31 6.7 SE 17 20 9 11 1019.5 1018.9 0.0
18/01:30am 14.6 9.1 -2.3 31 6.8 SE 17 20 9 11 1019.6 - 0.0
18/01:00am 12.9 8.2 -1.8 36 5.9 SE 13 17 7 9 1019.8 1019.2 0.0
18/12:30am 13.0 8.3 -2.1 35 6.0 SE 13 15 7 8 1020.0 - 0.0
18/12:00am 14.4 9.2 -2.5 31 6.8 SE 15 17 8 9 1020.3 1019.7 0.0
 
Date/Time
WST
Temp
°C
App
Temp
°C
Dew
Point
Rel
Hum
%
Delta-T
°C
Wind Press
QNH
hPa
Press
MSL
hPa
Rain
since 9 am
mm
Dir
 
Spd
km/h
Gust
km/h
Spd
kts
Gust
kts
17/11:30pm 15.3 9.8 -2.2 30 7.1 SE 17 19 9 10 1020.5 - 0.0
17/11:00pm 13.9 9.2 -1.7 34 6.3 SE 13 15 7 8 1020.5 1019.9 0.0
17/10:30pm 14.2 9.6 -1.4 34 6.4 SSE 13 15 7 8 1020.5 - 0.0
17/10:00pm 14.9 10.3 -1.2 33 6.7 SSE 13 17 7 9 1020.5 1019.9 0.0
17/09:30pm 15.4 10.4 -1.2 32 6.9 SSE 15 17 8 9 1020.4 - 0.0
17/09:00pm 15.6 11.0 -1.4 31 7.0 SSE 13 15 7 8 1020.3 1019.7 0.0

Other Formats:

Comma delimited format used in spreadsheet applications
http://www.bom.gov.au/fwo/IDW60801/IDW60801.99311.axf

JavaScript Object Notation format (JSON) in row-major order
http://www.bom.gov.au/fwo/IDW60801/IDW60801.99311.json